Time;durP1;ratioP1;P1;durP2;ratioP2;P2;SDS_P1;SDS_P2;PMS_P1;PMS_P2;Temp;Humidity;BMP_temperature;BMP_pressure;BME280_temperature;BME280_humidity;BME280_pressure;Samples;Min_cycle;Max_cycle;Signal;HPM_P1;HPM_P2
2024/01/20 00:00:07;;;;;;;6.72;5.15;;;19.80;28.70;;;;;;5113798;28;20098;-59
2024/01/20 00:02:33;;;;;;;7.28;5.25;;;19.80;28.70;;;;;;5112355;28;20035;-60
2024/01/20 00:04:58;;;;;;;7.65;5.97;;;19.80;28.70;;;;;;5114024;28;20035;-60
2024/01/20 00:07:24;;;;;;;7.80;5.72;;;19.70;28.70;;;;;;5112724;28;20027;-61
2024/01/20 00:09:50;;;;;;;6.72;5.22;;;19.80;28.80;;;;;;5114222;28;20454;-60
2024/01/20 00:12:16;;;;;;;8.13;5.78;;;19.70;28.70;;;;;;5094505;28;20028;-60
2024/01/20 00:14:41;;;;;;;6.45;5.28;;;19.70;28.70;;;;;;5113267;28;20070;-62
2024/01/20 00:17:07;;;;;;;9.35;5.72;;;19.70;28.70;;;;;;5112677;28;20483;-61
2024/01/20 00:19:33;;;;;;;7.43;5.50;;;19.70;28.70;;;;;;5113340;28;20339;-61
2024/01/20 00:21:59;;;;;;;7.88;6.00;;;19.70;28.70;;;;;;5112727;28;20031;-60
2024/01/20 00:24:29;;;;;;;7.50;5.88;;;19.70;28.70;;;;;;5094982;28;20019;-61
2024/01/20 00:26:55;;;;;;;7.63;5.35;;;19.70;28.70;;;;;;5095271;28;20039;-60
2024/01/20 00:29:20;;;;;;;6.57;5.53;;;19.60;28.70;;;;;;5112908;28;20023;-60
2024/01/20 00:31:47;;;;;;;7.45;5.63;;;19.70;28.70;;;;;;5113790;28;20392;-59
2024/01/20 00:34:13;;;;;;;7.93;5.82;;;19.60;28.70;;;;;;5112888;28;20068;-60
2024/01/20 00:36:38;;;;;;;9.00;6.28;;;19.60;28.70;;;;;;5092199;28;20028;-59
2024/01/20 00:39:05;;;;;;;7.45;5.97;;;19.60;28.70;;;;;;5112946;28;20051;-59
2024/01/20 00:41:30;;;;;;;6.90;5.68;;;19.60;28.70;;;;;;5112318;28;20152;-60
2024/01/20 00:43:58;;;;;;;8.20;6.38;;;19.60;28.70;;;;;;5113942;28;20102;-60
2024/01/20 00:46:24;;;;;;;7.70;6.18;;;19.60;28.70;;;;;;5112638;28;20028;-60
2024/01/20 00:48:50;;;;;;;7.93;5.82;;;19.60;28.70;;;;;;5113467;28;20030;-61
2024/01/20 00:51:16;;;;;;;8.48;6.13;;;19.50;28.70;;;;;;5112840;28;20099;-60
2024/01/20 00:53:41;;;;;;;7.22;5.68;;;19.50;28.70;;;;;;5113074;28;20176;-60
2024/01/20 00:56:07;;;;;;;9.15;6.15;;;19.50;28.70;;;;;;5112820;28;20032;-60
2024/01/20 00:58:33;;;;;;;7.70;5.65;;;19.50;28.70;;;;;;5113219;28;20023;-61
2024/01/20 01:00:59;;;;;;;7.78;5.65;;;19.50;29.20;;;;;;5095088;28;20378;-61
2024/01/20 01:03:25;;;;;;;9.20;6.45;;;19.50;28.70;;;;;;5113123;28;20047;-61
2024/01/20 01:05:51;;;;;;;8.23;6.35;;;19.50;28.70;;;;;;5112998;28;20530;-61
2024/01/20 01:08:17;;;;;;;7.10;5.75;;;19.40;28.70;;;;;;5113057;28;20031;-60
2024/01/20 01:10:42;;;;;;;8.43;6.47;;;19.40;28.70;;;;;;5112773;28;20028;-60
2024/01/20 01:13:08;;;;;;;8.38;6.15;;;19.40;28.70;;;;;;5113029;28;20081;-60
2024/01/20 01:15:34;;;;;;;8.25;6.45;;;19.40;28.70;;;;;;5097465;28;20466;-60
2024/01/20 01:18:00;;;;;;;9.02;6.22;;;19.40;28.70;;;;;;5113871;28;20435;-60
2024/01/20 01:20:26;;;;;;;8.13;6.35;;;19.40;28.70;;;;;;5117147;28;20492;-60
2024/01/20 01:22:52;;;;;;;8.68;6.47;;;19.40;28.70;;;;;;5116472;28;20031;-60
2024/01/20 01:25:19;;;;;;;8.38;6.13;;;19.40;28.80;;;;;;5116490;28;20047;-60
2024/01/20 01:27:45;;;;;;;8.65;6.32;;;19.40;28.80;;;;;;5116699;28;20050;-61
2024/01/20 01:30:11;;;;;;;10.57;6.93;;;19.40;28.80;;;;;;5098762;28;20035;-60
2024/01/20 01:32:37;;;;;;;8.20;5.95;;;19.40;28.80;;;;;;5117021;28;20370;-60
2024/01/20 01:35:03;;;;;;;7.97;6.10;;;19.40;28.80;;;;;;5116344;28;20023;-60
2024/01/20 01:37:29;;;;;;;8.43;6.15;;;19.40;28.80;;;;;;5116631;28;20038;-61
2024/01/20 01:39:54;;;;;;;8.15;6.20;;;19.40;28.80;;;;;;5115927;28;20032;-61
2024/01/20 01:42:20;;;;;;;8.43;6.40;;;19.30;28.80;;;;;;5098695;28;20044;-60
2024/01/20 01:44:46;;;;;;;6.43;5.60;;;19.30;28.80;;;;;;5116633;28;20066;-60
2024/01/20 01:47:12;;;;;;;8.35;6.35;;;19.30;28.80;;;;;;5116607;28;20031;-61
2024/01/20 01:49:37;;;;;;;7.85;6.03;;;19.30;28.80;;;;;;5115933;28;20342;-60
2024/01/20 01:52:03;;;;;;;7.63;6.10;;;19.30;28.80;;;;;;5116285;28;20035;-60
2024/01/20 01:54:30;;;;;;;8.65;6.50;;;19.30;28.80;;;;;;5116270;28;20015;-60
2024/01/20 01:56:59;;;;;;;7.75;6.03;;;19.30;28.80;;;;;;5116399;28;20031;-61
2024/01/20 01:59:28;;;;;;;8.57;6.63;;;19.30;28.90;;;;;;5113618;28;20023;-60
2024/01/20 02:01:54;;;;;;;8.38;6.40;;;19.20;28.80;;;;;;5115953;28;20437;-61
2024/01/20 02:04:19;;;;;;;8.43;5.72;;;19.30;28.90;;;;;;5115969;28;20043;-61
2024/01/20 02:06:45;;;;;;;8.00;6.20;;;19.30;28.90;;;;;;5115452;28;20430;-60
2024/01/20 02:09:12;;;;;;;8.95;6.45;;;19.20;28.80;;;;;;5113748;28;20027;-61
2024/01/20 02:11:39;;;;;;;8.00;6.28;;;19.20;28.80;;;;;;5115508;28;20034;-61
2024/01/20 02:14:05;;;;;;;8.70;6.55;;;19.20;28.80;;;;;;5116130;28;20441;-61
2024/01/20 02:16:31;;;;;;;8.25;6.07;;;19.20;28.90;;;;;;5115202;28;20028;-60
2024/01/20 02:19:06;;;;;;;8.88;6.03;;;19.20;28.90;;;;;;5097492;28;20023;-60
2024/01/20 02:21:36;;;;;;;7.72;5.65;;;19.20;28.90;;;;;;5097390;28;20354;-61
2024/01/20 02:24:05;;;;;;;8.15;5.97;;;19.20;28.90;;;;;;5115836;28;20039;-60
2024/01/20 02:26:31;;;;;;;8.10;5.85;;;19.20;28.90;;;;;;5115346;28;20351;-60
2024/01/20 02:28:57;;;;;;;8.32;6.40;;;19.20;28.90;;;;;;5114787;28;20164;-60
2024/01/20 02:31:22;;;;;;;7.50;5.75;;;19.20;28.90;;;;;;5115850;28;20107;-61
2024/01/20 02:33:48;;;;;;;7.93;5.80;;;19.10;28.90;;;;;;5115520;28;20024;-61
2024/01/20 02:36:14;;;;;;;8.52;6.28;;;19.10;28.90;;;;;;5112904;28;20089;-61
2024/01/20 02:38:40;;;;;;;7.53;5.70;;;19.10;28.90;;;;;;5096775;28;20050;-62
2024/01/20 02:41:05;;;;;;;7.95;5.75;;;19.10;28.90;;;;;;5114325;28;20023;-60
2024/01/20 02:43:31;;;;;;;8.20;6.03;;;19.10;28.90;;;;;;5112638;28;20135;-60
2024/01/20 02:45:57;;;;;;;8.05;5.85;;;19.10;28.90;;;;;;5080135;28;20035;-59
2024/01/20 02:48:24;;;;;;;8.25;5.97;;;19.10;28.90;;;;;;5115369;28;20024;-59
2024/01/20 02:50:49;;;;;;;7.03;5.53;;;19.10;28.90;;;;;;5114572;28;20043;-60
2024/01/20 02:53:15;;;;;;;7.90;5.88;;;19.10;28.90;;;;;;5115347;28;20116;-60
2024/01/20 02:55:41;;;;;;;8.05;6.00;;;19.10;28.90;;;;;;5115165;28;20038;-60
2024/01/20 02:58:07;;;;;;;7.53;5.60;;;19.10;28.90;;;;;;5115347;28;20324;-60
2024/01/20 03:00:33;;;;;;;7.80;5.85;;;19.10;28.90;;;;;;5114881;28;20431;-60
2024/01/20 03:02:58;;;;;;;7.68;5.90;;;19.00;28.90;;;;;;5114712;28;20042;-62
2024/01/20 03:05:24;;;;;;;8.10;5.97;;;19.00;28.90;;;;;;5115057;28;20027;-60
2024/01/20 03:07:50;;;;;;;7.25;5.45;;;19.00;28.90;;;;;;5113924;28;20102;-58
2024/01/20 03:10:16;;;;;;;8.40;5.28;;;19.00;29.00;;;;;;5114151;28;20426;-59
2024/01/20 03:12:41;;;;;;;9.45;6.07;;;19.00;29.00;;;;;;5114828;28;20115;-60
2024/01/20 03:15:08;;;;;;;7.05;5.10;;;19.00;29.00;;;;;;5115110;28;20051;-60
2024/01/20 03:17:33;;;;;;;6.85;5.55;;;19.00;28.90;;;;;;5114423;28;20028;-60
2024/01/20 03:19:59;;;;;;;7.35;5.10;;;19.00;28.90;;;;;;5096228;28;20054;-60
2024/01/20 03:22:25;;;;;;;8.02;5.70;;;19.00;28.90;;;;;;5113400;28;20031;-60
2024/01/20 03:24:51;;;;;;;7.97;5.75;;;19.00;29.00;;;;;;5096443;28;20065;-59
2024/01/20 03:27:19;;;;;;;8.13;5.53;;;19.00;28.90;;;;;;5114054;28;20092;-59
2024/01/20 03:29:45;;;;;;;7.75;5.57;;;19.00;28.90;;;;;;5113434;28;20031;-60
2024/01/20 03:32:12;;;;;;;6.90;5.18;;;19.00;29.00;;;;;;5114110;28;20034;-59
2024/01/20 03:34:38;;;;;;;9.48;6.00;;;19.00;28.90;;;;;;5114299;28;20027;-60
2024/01/20 03:37:05;;;;;;;7.82;5.07;;;18.90;28.90;;;;;;5113348;28;20028;-59
2024/01/20 03:39:31;;;;;;;7.07;5.25;;;19.00;28.90;;;;;;5113549;28;20075;-60
2024/01/20 03:41:57;;;;;;;7.25;5.60;;;19.00;29.00;;;;;;5114736;28;20024;-60
2024/01/20 03:44:22;;;;;;;6.20;4.65;;;18.90;28.90;;;;;;5114067;28;20016;-60
2024/01/20 03:46:48;;;;;;;6.40;5.07;;;18.90;28.90;;;;;;5114156;28;20405;-60
2024/01/20 03:49:14;;;;;;;8.20;5.47;;;18.90;28.90;;;;;;5095729;28;20038;-58
2024/01/20 03:51:40;;;;;;;8.45;5.72;;;18.90;28.90;;;;;;5095488;28;20035;-60
2024/01/20 03:54:06;;;;;;;6.70;5.40;;;18.90;28.90;;;;;;5114202;28;20026;-59
2024/01/20 03:56:31;;;;;;;6.88;5.25;;;18.90;28.90;;;;;;5096125;28;20031;-59
2024/01/20 03:58:58;;;;;;;8.25;5.43;;;18.90;28.90;;;;;;5114017;28;20046;-59
2024/01/20 04:01:24;;;;;;;7.65;5.40;;;18.90;28.90;;;;;;5113663;28;20031;-59
2024/01/20 04:03:50;;;;;;;7.45;5.57;;;18.90;28.90;;;;;;5113430;28;20027;-60
2024/01/20 04:06:16;;;;;;;7.35;5.22;;;18.90;28.90;;;;;;5113170;28;20023;-60
2024/01/20 04:08:45;;;;;;;8.35;5.38;;;18.90;28.90;;;;;;5113175;28;20023;-60
2024/01/20 04:11:11;;;;;;;7.50;5.00;;;18.90;28.90;;;;;;5113207;28;20023;-59
2024/01/20 04:13:36;;;;;;;6.50;5.25;;;18.80;28.80;;;;;;5113750;28;20024;-59
2024/01/20 04:16:02;;;;;;;6.78;5.30;;;18.80;29.30;;;;;;5113512;28;20111;-59
2024/01/20 04:18:28;;;;;;;7.43;4.95;;;18.80;28.80;;;;;;5113552;28;20055;-59
2024/01/20 04:20:54;;;;;;;6.63;5.05;;;18.80;28.90;;;;;;5113578;28;20020;-60
2024/01/20 04:23:20;;;;;;;7.28;5.25;;;18.80;28.80;;;;;;5094551;28;20575;-60
2024/01/20 04:25:46;;;;;;;7.55;5.55;;;18.80;28.80;;;;;;5113520;28;20019;-59
2024/01/20 04:28:12;;;;;;;7.57;5.15;;;18.80;28.80;;;;;;5113196;28;20016;-60
2024/01/20 04:30:38;;;;;;;7.18;5.38;;;18.80;28.80;;;;;;5113578;28;20034;-59
2024/01/20 04:33:04;;;;;;;6.85;5.45;;;18.80;28.80;;;;;;5113631;28;20023;-60
2024/01/20 04:35:29;;;;;;;7.15;5.20;;;18.80;28.80;;;;;;5113505;28;20026;-60
2024/01/20 04:37:55;;;;;;;7.10;5.22;;;18.80;28.80;;;;;;5111648;28;20028;-60
2024/01/20 04:40:21;;;;;;;7.28;5.07;;;18.80;28.80;;;;;;5080253;28;20056;-61
2024/01/20 04:42:47;;;;;;;7.22;5.40;;;18.80;28.80;;;;;;5059110;28;20108;-60
2024/01/20 04:45:13;;;;;;;6.82;5.13;;;18.80;28.90;;;;;;5073919;28;20305;-60
2024/01/20 04:47:39;;;;;;;7.28;5.50;;;18.70;28.80;;;;;;5086512;28;20036;-60
2024/01/20 04:50:05;;;;;;;6.45;4.75;;;18.80;28.90;;;;;;5084581;28;20035;-61
2024/01/20 04:52:31;;;;;;;7.00;5.32;;;18.70;28.80;;;;;;5073597;28;20532;-59
2024/01/20 04:54:57;;;;;;;5.90;4.68;;;18.70;28.80;;;;;;5077998;28;20021;-59
2024/01/20 04:57:23;;;;;;;8.45;4.90;;;18.70;28.80;;;;;;5054184;28;20052;-59
2024/01/20 04:59:49;;;;;;;6.00;4.80;;;18.70;28.80;;;;;;5082343;28;20508;-60
2024/01/20 05:02:15;;;;;;;6.72;4.65;;;18.70;28.80;;;;;;5074046;28;20119;-59
2024/01/20 05:04:41;;;;;;;7.50;4.60;;;18.70;28.80;;;;;;5071059;28;20098;-59
2024/01/20 05:07:07;;;;;;;6.55;4.95;;;18.70;28.80;;;;;;5068638;28;20033;-60
2024/01/20 05:09:32;;;;;;;6.50;4.85;;;18.70;28.80;;;;;;5070688;28;20454;-60
2024/01/20 05:11:58;;;;;;;6.40;4.90;;;18.70;28.80;;;;;;5066309;28;20448;-60
2024/01/20 05:14:24;;;;;;;7.43;5.25;;;18.70;28.80;;;;;;5070891;28;20367;-59
2024/01/20 05:16:50;;;;;;;7.40;5.05;;;18.70;28.80;;;;;;5068216;28;20048;-60
2024/01/20 05:19:15;;;;;;;5.85;4.50;;;18.70;29.30;;;;;;5075029;28;20032;-60
2024/01/20 05:21:41;;;;;;;6.00;4.20;;;18.70;28.80;;;;;;5076041;28;20083;-61
2024/01/20 05:24:07;;;;;;;6.05;4.60;;;18.70;28.80;;;;;;5067179;28;20474;-60
2024/01/20 05:26:33;;;;;;;6.18;4.57;;;18.70;28.80;;;;;;5067066;28;20494;-59
2024/01/20 05:28:59;;;;;;;5.78;4.80;;;18.60;28.80;;;;;;5064834;28;20099;-59
2024/01/20 05:31:31;;;;;;;5.85;4.50;;;18.70;28.80;;;;;;5049704;28;20098;-59
2024/01/20 05:34:00;;;;;;;6.72;4.68;;;18.60;28.80;;;;;;5046667;28;20444;-60
2024/01/20 05:36:25;;;;;;;6.03;4.60;;;18.60;28.80;;;;;;5065501;28;20104;-60
2024/01/20 05:38:51;;;;;;;6.72;4.25;;;18.60;28.80;;;;;;5053905;28;20216;-59
2024/01/20 05:41:17;;;;;;;6.05;4.30;;;18.60;28.80;;;;;;5095371;28;20016;-60
2024/01/20 05:43:43;;;;;;;7.07;4.43;;;18.60;28.80;;;;;;5095778;28;20032;-60
2024/01/20 05:46:09;;;;;;;5.57;4.07;;;18.60;28.80;;;;;;5095466;28;20023;-59
2024/01/20 05:48:35;;;;;;;6.60;4.72;;;18.60;28.80;;;;;;5095831;28;20044;-60
2024/01/20 05:51:01;;;;;;;6.85;4.57;;;18.60;28.90;;;;;;5093512;28;20020;-60
2024/01/20 05:53:27;;;;;;;6.32;4.68;;;18.50;28.80;;;;;;5095865;28;20089;-59
2024/01/20 05:55:53;;;;;;;7.00;4.90;;;18.60;28.80;;;;;;5095193;28;20083;-58
2024/01/20 05:58:19;;;;;;;5.40;4.57;;;18.60;28.80;;;;;;5080779;28;20032;-58
2024/01/20 06:00:45;;;;;;;6.38;4.30;;;18.60;28.80;;;;;;5077024;28;20078;-60
2024/01/20 06:03:10;;;;;;;6.28;4.38;;;18.60;28.90;;;;;;5094254;28;20080;-61
2024/01/20 06:05:36;;;;;;;5.80;4.30;;;18.60;28.80;;;;;;5094977;28;20036;-60
2024/01/20 06:08:02;;;;;;;5.75;4.25;;;18.50;28.80;;;;;;5095025;28;20035;-60
2024/01/20 06:10:28;;;;;;;5.80;4.40;;;18.50;28.80;;;;;;5094955;28;20039;-59
2024/01/20 06:12:53;;;;;;;6.05;3.72;;;18.50;28.80;;;;;;5094799;28;20032;-59
2024/01/20 06:15:19;;;;;;;5.80;4.22;;;18.50;28.80;;;;;;5095294;28;20034;-60
2024/01/20 06:17:45;;;;;;;5.22;4.05;;;18.50;28.80;;;;;;5093887;28;20115;-60
2024/01/20 06:20:11;;;;;;;6.32;4.32;;;18.50;28.90;;;;;;5077082;28;20031;-61
2024/01/20 06:22:39;;;;;;;5.50;4.28;;;18.50;28.90;;;;;;5092543;28;20024;-61
2024/01/20 06:25:05;;;;;;;5.88;4.22;;;18.50;28.90;;;;;;5093383;28;20051;-59
2024/01/20 06:27:31;;;;;;;5.38;4.07;;;18.50;28.90;;;;;;5094887;28;20108;-60
2024/01/20 06:29:56;;;;;;;5.57;4.00;;;18.50;28.90;;;;;;5094251;28;20435;-60
2024/01/20 06:32:22;;;;;;;5.18;4.13;;;18.50;28.90;;;;;;5077182;28;20047;-60
2024/01/20 06:34:48;;;;;;;5.50;3.97;;;18.50;28.90;;;;;;5095119;28;20020;-59
2024/01/20 06:37:14;;;;;;;5.88;4.43;;;18.50;28.90;;;;;;5075705;28;20040;-59
2024/01/20 06:39:41;;;;;;;6.03;4.18;;;18.50;28.90;;;;;;5093767;28;20044;-59
2024/01/20 06:42:08;;;;;;;4.88;3.80;;;18.50;28.90;;;;;;5092060;28;20097;-60
2024/01/20 06:44:33;;;;;;;5.80;3.97;;;18.50;29.00;;;;;;5094448;28;20047;-60
2024/01/20 06:46:59;;;;;;;5.38;3.67;;;18.50;29.20;;;;;;5094111;28;20067;-60
2024/01/20 06:49:25;;;;;;;5.18;3.97;;;18.50;29.20;;;;;;5094308;28;20454;-61
2024/01/20 06:51:51;;;;;;;4.93;3.88;;;18.50;29.20;;;;;;5092139;28;20549;-60
2024/01/20 06:54:16;;;;;;;5.38;4.07;;;18.50;29.20;;;;;;5094498;28;20339;-60
2024/01/20 06:56:42;;;;;;;5.35;4.18;;;18.40;29.10;;;;;;5094339;28;20438;-59
2024/01/20 06:59:08;;;;;;;4.45;3.63;;;18.40;29.10;;;;;;5094786;28;20070;-60
2024/01/20 07:01:34;;;;;;;5.30;3.78;;;18.40;29.10;;;;;;5075908;28;20443;-60
2024/01/20 07:04:00;;;;;;;4.93;3.60;;;18.40;29.10;;;;;;5093637;28;20040;-59
2024/01/20 07:06:25;;;;;;;5.22;3.67;;;18.40;29.10;;;;;;5093290;28;20043;-59
2024/01/20 07:08:52;;;;;;;4.90;3.70;;;18.40;29.10;;;;;;5075460;28;20416;-59
2024/01/20 07:11:18;;;;;;;5.13;3.97;;;18.40;29.10;;;;;;5093532;28;20017;-60
2024/01/20 07:13:44;;;;;;;5.28;3.70;;;18.40;29.10;;;;;;5093516;28;20035;-58
2024/01/20 07:16:11;;;;;;;5.32;4.13;;;18.40;29.10;;;;;;5093334;28;20111;-60
2024/01/20 07:18:38;;;;;;;5.45;4.10;;;18.40;29.10;;;;;;5093062;28;20102;-60
2024/01/20 07:21:04;;;;;;;5.20;3.78;;;18.40;29.10;;;;;;5093266;28;20031;-61
2024/01/20 07:23:30;;;;;;;4.45;3.70;;;18.40;29.10;;;;;;5092958;28;20036;-58
2024/01/20 07:25:58;;;;;;;5.13;3.72;;;18.40;29.10;;;;;;5093669;28;20085;-61
2024/01/20 07:28:27;;;;;;;5.25;3.70;;;18.40;29.20;;;;;;5093490;28;20399;-60
2024/01/20 07:30:53;;;;;;;5.47;4.10;;;18.40;29.20;;;;;;5090329;28;20039;-61
2024/01/20 07:33:19;;;;;;;5.70;3.85;;;18.40;29.10;;;;;;5093067;28;20028;-60
2024/01/20 07:35:45;;;;;;;6.00;4.05;;;18.40;29.20;;;;;;5092979;28;20086;-60
2024/01/20 07:38:11;;;;;;;5.30;3.67;;;18.40;29.20;;;;;;5075199;28;20032;-61
2024/01/20 07:40:37;;;;;;;5.97;3.90;;;18.40;29.20;;;;;;5066942;28;20108;-59
2024/01/20 07:43:07;;;;;;;4.78;3.80;;;18.40;29.20;;;;;;5092630;28;20454;-61
2024/01/20 07:45:33;;;;;;;6.22;4.28;;;18.40;29.20;;;;;;5075706;28;20054;-63
2024/01/20 07:48:00;;;;;;;4.18;3.50;;;18.40;29.20;;;;;;5092997;28;20043;-54
2024/01/20 07:50:26;;;;;;;6.07;3.88;;;18.40;29.20;;;;;;5073624;28;20043;-59
2024/01/20 07:52:52;;;;;;;5.07;4.05;;;18.40;29.20;;;;;;5091783;28;20020;-60
2024/01/20 07:55:18;;;;;;;5.57;4.15;;;18.40;29.20;;;;;;5094354;28;20416;-60
2024/01/20 07:57:43;;;;;;;5.03;3.70;;;18.40;29.20;;;;;;5093857;28;20048;-60
2024/01/20 08:00:13;;;;;;;5.97;4.28;;;18.40;29.20;;;;;;5094485;28;20024;-59
2024/01/20 08:02:39;;;;;;;5.13;3.78;;;18.40;29.20;;;;;;5094024;28;20119;-61
2024/01/20 08:05:06;;;;;;;4.53;3.53;;;18.40;29.20;;;;;;5093742;28;20031;-61
2024/01/20 08:07:32;;;;;;;4.97;3.90;;;18.40;29.20;;;;;;5092785;28;20036;-60
2024/01/20 08:09:59;;;;;;;5.47;3.58;;;18.40;29.20;;;;;;5093713;28;20332;-59
2024/01/20 08:12:25;;;;;;;5.03;3.55;;;18.40;29.20;;;;;;5075888;28;20028;-60
2024/01/20 08:14:50;;;;;;;4.53;3.17;;;18.40;29.20;;;;;;5076226;28;20328;-63
2024/01/20 08:17:17;;;;;;;5.00;3.40;;;18.30;29.20;;;;;;5093784;28;20035;-59
2024/01/20 08:19:49;;;;;;;4.57;3.20;;;18.40;29.30;;;;;;5093652;28;20031;-60
2024/01/20 08:22:15;;;;;;;5.35;3.15;;;18.40;29.40;;;;;;5073800;28;20448;-59
2024/01/20 08:24:41;;;;;;;4.78;3.50;;;18.30;29.40;;;;;;5093551;28;20024;-59
2024/01/20 08:27:07;;;;;;;3.70;3.10;;;18.40;29.50;;;;;;5075479;28;20443;-60
2024/01/20 08:29:33;;;;;;;4.88;3.17;;;18.40;29.50;;;;;;5093924;28;20031;-60
2024/01/20 08:31:58;;;;;;;4.60;3.08;;;18.40;29.50;;;;;;5093363;28;20032;-60
2024/01/20 08:34:26;;;;;;;4.28;3.10;;;18.40;29.50;;;;;;5092691;28;20047;-60
2024/01/20 08:36:52;;;;;;;3.65;2.90;;;18.50;29.50;;;;;;5092216;28;20031;-59
2024/01/20 08:39:18;;;;;;;5.95;3.10;;;18.50;29.50;;;;;;5087513;28;20044;-59
2024/01/20 08:41:45;;;;;;;4.07;2.70;;;18.60;29.50;;;;;;5091166;28;20431;-60
2024/01/20 08:44:11;;;;;;;5.07;2.88;;;18.70;29.50;;;;;;5092093;28;20055;-60
2024/01/20 08:46:37;;;;;;;4.63;3.30;;;18.70;29.50;;;;;;5092178;28;20478;-60
2024/01/20 08:49:02;;;;;;;5.35;3.00;;;18.80;29.50;;;;;;5074033;28;20038;-64
2024/01/20 08:51:30;;;;;;;3.63;2.85;;;18.80;29.50;;;;;;5092262;28;20070;-64
2024/01/20 08:53:57;;;;;;;6.93;2.63;;;18.90;29.50;;;;;;5089108;28;20024;-60
2024/01/20 08:56:23;;;;;;;3.45;2.50;;;19.00;29.70;;;;;;5092694;28;20347;-60
2024/01/20 08:58:49;;;;;;;7.07;2.80;;;19.00;29.80;;;;;;5092473;28;20035;-63
2024/01/20 09:01:16;;;;;;;3.40;2.30;;;19.10;29.80;;;;;;5092411;28;20047;-62
2024/01/20 09:03:42;;;;;;;5.90;2.33;;;19.20;29.80;;;;;;5075125;28;20390;-61
2024/01/20 09:06:07;;;;;;;3.50;2.47;;;19.20;29.90;;;;;;5092009;28;20020;-62
2024/01/20 09:08:33;;;;;;;2.88;2.17;;;19.30;29.90;;;;;;5074924;28;20459;-63
2024/01/20 09:10:59;;;;;;;3.58;2.45;;;19.40;29.80;;;;;;5092589;28;20058;-64
2024/01/20 09:13:25;;;;;;;3.20;2.20;;;19.40;29.80;;;;;;5071043;28;20024;-63
2024/01/20 09:15:51;;;;;;;3.15;2.40;;;19.50;29.70;;;;;;5092106;28;20447;-63
2024/01/20 09:18:17;;;;;;;3.38;2.65;;;19.50;29.60;;;;;;5092859;28;20028;-62
2024/01/20 09:20:43;;;;;;;3.15;2.50;;;19.60;29.60;;;;;;5097645;28;20024;-63
2024/01/20 09:23:09;;;;;;;4.75;2.33;;;19.60;29.50;;;;;;5091203;28;20039;-63
2024/01/20 09:25:35;;;;;;;3.53;2.67;;;19.60;29.50;;;;;;5091488;28;20028;-63
2024/01/20 09:28:03;;;;;;;3.47;2.40;;;19.70;29.40;;;;;;5071140;28;20335;-62
2024/01/20 09:30:29;;;;;;;3.63;2.20;;;19.80;29.40;;;;;;5091028;28;20055;-64
2024/01/20 09:32:55;;;;;;;2.90;2.22;;;19.80;29.30;;;;;;5091718;28;20032;-62
2024/01/20 09:35:23;;;;;;;4.00;2.70;;;19.90;29.30;;;;;;5084336;28;20043;-63
2024/01/20 09:37:50;;;;;;;3.45;2.65;;;19.90;29.20;;;;;;5091756;28;20381;-65
2024/01/20 09:40:16;;;;;;;3.42;2.42;;;19.90;29.30;;;;;;5074509;28;20120;-64
2024/01/20 09:42:42;;;;;;;3.25;2.30;;;20.00;29.30;;;;;;5051592;28;20438;-64
2024/01/20 09:45:08;;;;;;;3.70;2.40;;;20.00;29.20;;;;;;5078374;28;20020;-65
2024/01/20 09:47:35;;;;;;;3.92;2.53;;;20.00;29.20;;;;;;5085321;28;20422;-65
2024/01/20 09:50:02;;;;;;;4.20;2.25;;;20.00;29.20;;;;;;5071644;28;20027;-66
2024/01/20 09:52:29;;;;;;;3.22;2.33;;;20.00;29.10;;;;;;5075730;28;20084;-65
2024/01/20 09:55:23;;;;;;;4.10;2.70;;;20.10;29.10;;;;;;5076495;28;20017;-65
2024/01/20 09:57:50;;;;;;;3.67;2.45;;;20.10;29.00;;;;;;5073583;28;20321;-64
2024/01/20 10:00:16;;;;;;;4.45;2.42;;;20.10;29.00;;;;;;5058643;28;20021;-64
2024/01/20 10:02:46;;;;;;;4.10;2.47;;;20.10;29.00;;;;;;5072042;28;20550;-65
2024/01/20 10:05:13;;;;;;;3.72;2.28;;;20.10;28.90;;;;;;5041754;28;20024;-66
2024/01/20 10:07:39;;;;;;;3.38;2.30;;;20.10;28.90;;;;;;5076032;28;20020;-64
2024/01/20 10:10:17;;;;;;;3.08;2.50;;;20.10;28.80;;;;;;5075907;28;20036;-65
2024/01/20 10:12:42;;;;;;;3.00;2.33;;;20.20;28.80;;;;;;5075992;28;20024;-65
2024/01/20 10:15:08;;;;;;;3.20;2.33;;;20.10;28.80;;;;;;5058317;28;20375;-66
2024/01/20 10:17:37;;;;;;;2.65;1.95;;;20.20;28.80;;;;;;5076591;28;20402;-64
2024/01/20 10:20:05;;;;;;;3.88;2.80;;;20.20;28.70;;;;;;5072266;28;20076;-64
2024/01/20 10:22:31;;;;;;;3.28;2.42;;;20.20;28.70;;;;;;5067937;28;21593;-64
2024/01/20 10:24:56;;;;;;;3.92;2.60;;;20.20;28.70;;;;;;5074122;28;20021;-65
2024/01/20 10:27:23;;;;;;;3.33;2.25;;;20.20;28.70;;;;;;5072306;28;20329;-65
2024/01/20 10:29:49;;;;;;;2.95;2.40;;;20.20;28.70;;;;;;5071996;28;20033;-64
2024/01/20 10:32:16;;;;;;;4.68;2.55;;;20.20;28.60;;;;;;5069298;28;20029;-65
2024/01/20 10:34:43;;;;;;;2.53;2.00;;;20.20;28.70;;;;;;5071884;28;20051;-64
2024/01/20 10:37:13;;;;;;;3.80;2.03;;;20.30;28.70;;;;;;5072784;28;20094;-65
2024/01/20 10:39:46;;;;;;;4.20;2.80;;;20.20;28.60;;;;;;5072362;28;20464;-64
2024/01/20 10:42:13;;;;;;;3.60;2.25;;;20.30;28.70;;;;;;5069375;28;20104;-66
2024/01/20 10:44:50;;;;;;;2.97;2.28;;;20.30;28.70;;;;;;5051799;28;20033;-64
2024/01/20 10:47:27;;;;;;;4.85;1.98;;;20.30;28.80;;;;;;5069451;28;20391;-63
2024/01/20 10:49:53;;;;;;;2.72;1.80;;;20.30;29.00;;;;;;5070924;28;20048;-63
2024/01/20 10:52:19;;;;;;;2.45;1.80;;;20.40;29.20;;;;;;5074064;28;20035;-63
2024/01/20 10:54:46;;;;;;;2.95;1.80;;;20.40;29.30;;;;;;5070981;28;20039;-64
2024/01/20 10:57:13;;;;;;;1.95;1.40;;;20.40;29.40;;;;;;5067946;28;20332;-64
2024/01/20 10:59:41;;;;;;;2.03;1.75;;;20.40;29.50;;;;;;5074301;28;20029;-62
2024/01/20 11:02:12;;;;;;;2.72;1.80;;;20.50;29.60;;;;;;5060167;28;20383;-68
2024/01/20 11:04:43;;;;;;;2.83;1.83;;;20.50;29.60;;;;;;5065786;28;20028;-63
2024/01/20 11:07:09;;;;;;;3.10;1.85;;;20.50;29.60;;;;;;5057480;28;20408;-62
2024/01/20 11:09:39;;;;;;;2.55;1.90;;;20.50;29.60;;;;;;5071037;28;20029;-63
2024/01/20 11:12:09;;;;;;;2.05;1.60;;;20.60;29.60;;;;;;5075072;28;20440;-64
2024/01/20 11:14:35;;;;;;;2.67;2.03;;;20.60;29.60;;;;;;5074421;28;20090;-66
2024/01/20 11:17:14;;;;;;;2.35;1.90;;;20.60;29.60;;;;;;5072044;28;20500;-64
2024/01/20 11:19:41;;;;;;;4.40;2.00;;;20.60;29.50;;;;;;5056887;28;20035;-68
2024/01/20 11:22:32;;;;;;;3.42;2.10;;;20.60;29.50;;;;;;5073854;28;20359;-62
2024/01/20 11:25:04;;;;;;;3.50;2.13;;;20.60;29.50;;;;;;5072791;28;20663;-61
2024/01/20 11:27:29;;;;;;;2.55;1.70;;;20.60;29.50;;;;;;5072690;28;20020;-63
2024/01/20 11:30:08;;;;;;;3.15;2.05;;;20.60;29.40;;;;;;5070639;28;20345;-62
2024/01/20 11:32:34;;;;;;;2.92;2.10;;;20.60;29.40;;;;;;5070284;28;20032;-61
2024/01/20 11:35:04;;;;;;;2.78;2.17;;;20.60;29.30;;;;;;5075664;28;20054;-63
2024/01/20 11:37:31;;;;;;;2.58;1.90;;;20.60;29.20;;;;;;5071338;28;20409;-63
2024/01/20 11:40:07;;;;;;;3.22;2.17;;;20.60;29.20;;;;;;5066030;28;20044;-59
2024/01/20 11:42:35;;;;;;;2.63;2.00;;;20.60;29.20;;;;;;5090673;28;20048;-61
2024/01/20 11:45:04;;;;;;;2.97;2.00;;;20.60;29.20;;;;;;5090862;28;20497;-59
2024/01/20 11:47:34;;;;;;;3.60;2.10;;;20.70;29.20;;;;;;5090230;28;20439;-60
2024/01/20 11:50:01;;;;;;;3.17;1.90;;;20.60;29.20;;;;;;5089104;28;20062;-59
2024/01/20 11:52:27;;;;;;;2.92;2.13;;;20.60;29.10;;;;;;5093820;28;20020;-60
2024/01/20 11:54:54;;;;;;;2.67;2.08;;;20.70;29.10;;;;;;5075658;28;20101;-61
2024/01/20 11:57:21;;;;;;;2.67;1.77;;;20.70;29.00;;;;;;5090999;28;20455;-61
2024/01/20 11:59:47;;;;;;;3.10;2.50;;;20.70;28.90;;;;;;5070287;28;20024;-59
2024/01/20 12:02:15;;;;;;;2.65;1.92;;;20.70;28.80;;;;;;5091469;28;20039;-60
2024/01/20 12:04:41;;;;;;;3.53;2.55;;;20.70;28.80;;;;;;5092581;28;20023;-60
2024/01/20 12:07:07;;;;;;;2.97;2.25;;;20.70;28.70;;;;;;5084277;28;20024;-60
2024/01/20 12:09:33;;;;;;;3.33;2.05;;;20.80;28.70;;;;;;5084988;28;20069;-60
2024/01/20 12:12:00;;;;;;;2.97;2.10;;;20.80;28.60;;;;;;5071361;28;20462;-67
2024/01/20 12:14:26;;;;;;;2.70;2.00;;;20.80;28.60;;;;;;5088628;28;20032;-58
2024/01/20 12:16:54;;;;;;;4.40;1.67;;;20.80;28.60;;;;;;5088735;28;20134;-59
2024/01/20 12:19:20;;;;;;;2.50;2.10;;;20.80;28.60;;;;;;5091086;28;20024;-60
2024/01/20 12:21:46;;;;;;;2.10;1.52;;;20.90;28.80;;;;;;5093398;28;20370;-61
2024/01/20 12:24:12;;;;;;;3.47;2.17;;;20.90;28.80;;;;;;5090632;28;20110;-61
2024/01/20 12:26:44;;;;;;;2.83;2.10;;;20.90;28.80;;;;;;5092582;28;20024;-62
2024/01/20 12:29:09;;;;;;;4.80;1.95;;;20.90;28.80;;;;;;5074291;28;20051;-61
2024/01/20 12:31:35;;;;;;;2.50;2.05;;;20.90;29.00;;;;;;5092110;28;20024;-61
2024/01/20 12:34:01;;;;;;;3.47;2.20;;;21.00;29.20;;;;;;5087275;28;20043;-61
2024/01/20 12:36:27;;;;;;;3.05;2.05;;;21.00;29.20;;;;;;5089706;28;20047;-61
2024/01/20 12:38:53;;;;;;;3.38;2.20;;;21.00;29.20;;;;;;5080473;28;20087;-60
2024/01/20 12:41:19;;;;;;;4.13;2.42;;;21.10;29.20;;;;;;5087545;28;20024;-61
2024/01/20 12:43:48;;;;;;;3.65;2.00;;;21.10;29.10;;;;;;5090338;28;20066;-61